sensor_id;sensor_type;location;lat;lon;timestamp;P1;durP1;ratioP1;P2;durP2;ratioP2
295;SDS011;132;48.770;9.200;2024-03-02T00:00:56;26.20;;;12.43;;
295;SDS011;132;48.770;9.200;2024-03-02T00:03:36;19.92;;;12.48;;
295;SDS011;132;48.770;9.200;2024-03-02T00:06:19;17.13;;;10.57;;
295;SDS011;132;48.770;9.200;2024-03-02T00:09:00;18.42;;;11.38;;
295;SDS011;132;48.770;9.200;2024-03-02T00:11:39;19.92;;;11.48;;
295;SDS011;132;48.770;9.200;2024-03-02T00:14:20;18.15;;;11.20;;
295;SDS011;132;48.770;9.200;2024-03-02T00:16:58;23.50;;;11.52;;
295;SDS011;132;48.770;9.200;2024-03-02T00:19:51;19.30;;;11.82;;
295;SDS011;132;48.770;9.200;2024-03-02T00:22:31;17.30;;;10.38;;
295;SDS011;132;48.770;9.200;2024-03-02T00:25:14;20.83;;;11.32;;
295;SDS011;132;48.770;9.200;2024-03-02T00:27:55;18.90;;;11.65;;
295;SDS011;132;48.770;9.200;2024-03-02T00:30:51;19.70;;;11.27;;
295;SDS011;132;48.770;9.200;2024-03-02T00:33:44;18.42;;;10.68;;
295;SDS011;132;48.770;9.200;2024-03-02T00:36:26;20.05;;;11.35;;
295;SDS011;132;48.770;9.200;2024-03-02T00:39:06;19.55;;;12.05;;
295;SDS011;132;48.770;9.200;2024-03-02T00:41:46;18.83;;;11.45;;
295;SDS011;132;48.770;9.200;2024-03-02T00:44:26;18.65;;;10.88;;
295;SDS011;132;48.770;9.200;2024-03-02T00:47:22;18.50;;;10.98;;
295;SDS011;132;48.770;9.200;2024-03-02T00:50:00;19.65;;;10.73;;
295;SDS011;132;48.770;9.200;2024-03-02T00:52:38;17.85;;;10.82;;
295;SDS011;132;48.770;9.200;2024-03-02T00:55:30;18.40;;;11.45;;
295;SDS011;132;48.770;9.200;2024-03-02T00:58:08;19.27;;;10.57;;
295;SDS011;132;48.770;9.200;2024-03-02T01:00:46;16.00;;;9.93;;
295;SDS011;132;48.770;9.200;2024-03-02T01:03:24;15.15;;;9.48;;
295;SDS011;132;48.770;9.200;2024-03-02T01:06:05;18.08;;;10.63;;
295;SDS011;132;48.770;9.200;2024-03-02T01:08:46;18.77;;;10.88;;
295;SDS011;132;48.770;9.200;2024-03-02T01:11:30;18.88;;;10.70;;
295;SDS011;132;48.770;9.200;2024-03-02T01:14:20;17.95;;;10.70;;
295;SDS011;132;48.770;9.200;2024-03-02T01:16:59;17.45;;;10.05;;
295;SDS011;132;48.770;9.200;2024-03-02T01:19:36;18.70;;;9.98;;
295;SDS011;132;48.770;9.200;2024-03-02T01:22:19;18.98;;;10.73;;
295;SDS011;132;48.770;9.200;2024-03-02T01:25:02;19.30;;;10.90;;
295;SDS011;132;48.770;9.200;2024-03-02T01:27:44;18.25;;;10.82;;
295;SDS011;132;48.770;9.200;2024-03-02T01:30:22;18.98;;;10.35;;
295;SDS011;132;48.770;9.200;2024-03-02T01:33:03;17.40;;;10.45;;
295;SDS011;132;48.770;9.200;2024-03-02T01:35:44;18.27;;;10.90;;
295;SDS011;132;48.770;9.200;2024-03-02T01:38:22;17.83;;;10.75;;
295;SDS011;132;48.770;9.200;2024-03-02T01:41:03;18.95;;;11.10;;
295;SDS011;132;48.770;9.200;2024-03-02T01:43:42;21.38;;;11.55;;
295;SDS011;132;48.770;9.200;2024-03-02T01:46:25;20.67;;;12.15;;
295;SDS011;132;48.770;9.200;2024-03-02T01:49:22;19.30;;;11.00;;
295;SDS011;132;48.770;9.200;2024-03-02T01:52:02;19.33;;;11.27;;
295;SDS011;132;48.770;9.200;2024-03-02T01:54:42;21.65;;;12.05;;
295;SDS011;132;48.770;9.200;2024-03-02T01:57:22;19.38;;;10.82;;
295;SDS011;132;48.770;9.200;2024-03-02T02:00:18;21.58;;;12.32;;
295;SDS011;132;48.770;9.200;2024-03-02T02:03:00;20.30;;;11.93;;
295;SDS011;132;48.770;9.200;2024-03-02T02:05:38;18.67;;;11.48;;
295;SDS011;132;48.770;9.200;2024-03-02T02:08:37;20.27;;;11.70;;
295;SDS011;132;48.770;9.200;2024-03-02T02:11:36;21.75;;;11.68;;
295;SDS011;132;48.770;9.200;2024-03-02T02:14:15;15.82;;;10.65;;
295;SDS011;132;48.770;9.200;2024-03-02T02:16:53;17.92;;;9.85;;
295;SDS011;132;48.770;9.200;2024-03-02T02:19:40;19.65;;;11.00;;
295;SDS011;132;48.770;9.200;2024-03-02T02:22:26;19.15;;;10.98;;
295;SDS011;132;48.770;9.200;2024-03-02T02:25:07;16.30;;;10.25;;
295;SDS011;132;48.770;9.200;2024-03-02T02:27:45;23.65;;;11.93;;
295;SDS011;132;48.770;9.200;2024-03-02T02:30:25;20.02;;;11.45;;
295;SDS011;132;48.770;9.200;2024-03-02T02:33:04;19.50;;;10.45;;
295;SDS011;132;48.770;9.200;2024-03-02T02:35:45;18.65;;;10.95;;
295;SDS011;132;48.770;9.200;2024-03-02T02:38:23;19.60;;;10.80;;
295;SDS011;132;48.770;9.200;2024-03-02T02:41:03;17.75;;;9.88;;
295;SDS011;132;48.770;9.200;2024-03-02T02:43:47;20.70;;;11.65;;
295;SDS011;132;48.770;9.200;2024-03-02T02:46:29;18.17;;;10.15;;
295;SDS011;132;48.770;9.200;2024-03-02T02:49:36;18.75;;;11.10;;
295;SDS011;132;48.770;9.200;2024-03-02T02:52:17;19.83;;;11.40;;
295;SDS011;132;48.770;9.200;2024-03-02T02:55:19;18.95;;;10.70;;
295;SDS011;132;48.770;9.200;2024-03-02T02:57:59;19.90;;;11.63;;
295;SDS011;132;48.770;9.200;2024-03-02T03:00:39;22.67;;;13.70;;
295;SDS011;132;48.770;9.200;2024-03-02T03:03:20;23.17;;;11.85;;
295;SDS011;132;48.770;9.200;2024-03-02T03:06:08;24.42;;;12.57;;
295;SDS011;132;48.770;9.200;2024-03-02T03:08:51;19.75;;;10.73;;
295;SDS011;132;48.770;9.200;2024-03-02T03:11:31;19.83;;;11.25;;
295;SDS011;132;48.770;9.200;2024-03-02T03:14:13;22.58;;;11.75;;
295;SDS011;132;48.770;9.200;2024-03-02T03:16:56;18.17;;;11.30;;
295;SDS011;132;48.770;9.200;2024-03-02T03:19:37;22.33;;;11.95;;
295;SDS011;132;48.770;9.200;2024-03-02T03:22:26;22.05;;;12.00;;
295;SDS011;132;48.770;9.200;2024-03-02T03:25:20;22.92;;;12.52;;
295;SDS011;132;48.770;9.200;2024-03-02T03:28:04;22.90;;;11.80;;
295;SDS011;132;48.770;9.200;2024-03-02T03:30:45;21.88;;;12.13;;
295;SDS011;132;48.770;9.200;2024-03-02T03:33:25;25.13;;;13.60;;
295;SDS011;132;48.770;9.200;2024-03-02T03:36:07;24.92;;;12.90;;
295;SDS011;132;48.770;9.200;2024-03-02T03:38:48;23.70;;;12.30;;
295;SDS011;132;48.770;9.200;2024-03-02T03:41:28;26.05;;;13.43;;
295;SDS011;132;48.770;9.200;2024-03-02T03:44:20;31.15;;;13.82;;
295;SDS011;132;48.770;9.200;2024-03-02T03:47:09;25.05;;;12.85;;
295;SDS011;132;48.770;9.200;2024-03-02T03:49:49;23.90;;;12.82;;
295;SDS011;132;48.770;9.200;2024-03-02T03:52:29;26.58;;;13.60;;
295;SDS011;132;48.770;9.200;2024-03-02T03:55:11;26.70;;;12.93;;
295;SDS011;132;48.770;9.200;2024-03-02T03:57:52;23.73;;;12.80;;
295;SDS011;132;48.770;9.200;2024-03-02T04:00:32;25.48;;;12.38;;
295;SDS011;132;48.770;9.200;2024-03-02T04:03:12;31.95;;;13.05;;
295;SDS011;132;48.770;9.200;2024-03-02T04:05:56;26.00;;;13.30;;
295;SDS011;132;48.770;9.200;2024-03-02T04:08:37;24.67;;;12.48;;
295;SDS011;132;48.770;9.200;2024-03-02T04:11:20;28.33;;;14.55;;
295;SDS011;132;48.770;9.200;2024-03-02T04:14:07;25.67;;;13.77;;
295;SDS011;132;48.770;9.200;2024-03-02T04:16:53;23.27;;;12.80;;
295;SDS011;132;48.770;9.200;2024-03-02T04:19:39;28.42;;;14.10;;
295;SDS011;132;48.770;9.200;2024-03-02T04:22:49;28.35;;;14.85;;
295;SDS011;132;48.770;9.200;2024-03-02T04:25:40;28.55;;;13.77;;
295;SDS011;132;48.770;9.200;2024-03-02T04:28:35;24.48;;;12.88;;
295;SDS011;132;48.770;9.200;2024-03-02T04:31:20;24.52;;;13.43;;
295;SDS011;132;48.770;9.200;2024-03-02T04:34:02;30.33;;;14.68;;
295;SDS011;132;48.770;9.200;2024-03-02T04:36:50;26.55;;;13.20;;
295;SDS011;132;48.770;9.200;2024-03-02T04:39:57;26.77;;;13.18;;
295;SDS011;132;48.770;9.200;2024-03-02T04:42:41;27.95;;;14.02;;
295;SDS011;132;48.770;9.200;2024-03-02T04:45:39;25.48;;;13.38;;
295;SDS011;132;48.770;9.200;2024-03-02T04:48:20;29.85;;;14.13;;
295;SDS011;132;48.770;9.200;2024-03-02T04:51:16;25.60;;;13.25;;
295;SDS011;132;48.770;9.200;2024-03-02T04:53:57;25.58;;;13.38;;
295;SDS011;132;48.770;9.200;2024-03-02T04:56:37;28.48;;;13.60;;
295;SDS011;132;48.770;9.200;2024-03-02T04:59:34;29.10;;;14.50;;
295;SDS011;132;48.770;9.200;2024-03-02T05:02:15;27.40;;;14.02;;
295;SDS011;132;48.770;9.200;2024-03-02T05:04:59;28.95;;;14.38;;
295;SDS011;132;48.770;9.200;2024-03-02T05:07:46;30.75;;;14.73;;
295;SDS011;132;48.770;9.200;2024-03-02T05:10:25;29.40;;;15.07;;
295;SDS011;132;48.770;9.200;2024-03-02T05:13:38;27.80;;;13.90;;
295;SDS011;132;48.770;9.200;2024-03-02T05:16:45;29.95;;;14.30;;
295;SDS011;132;48.770;9.200;2024-03-02T05:19:29;27.85;;;14.70;;
295;SDS011;132;48.770;9.200;2024-03-02T05:22:13;28.73;;;13.93;;
295;SDS011;132;48.770;9.200;2024-03-02T05:24:55;27.90;;;14.75;;
295;SDS011;132;48.770;9.200;2024-03-02T05:27:35;28.17;;;15.15;;
295;SDS011;132;48.770;9.200;2024-03-02T05:30:22;27.55;;;14.43;;
295;SDS011;132;48.770;9.200;2024-03-02T05:43:35;32.90;;;14.40;;
295;SDS011;132;48.770;9.200;2024-03-02T05:46:22;29.40;;;15.57;;
295;SDS011;132;48.770;9.200;2024-03-02T05:59:33;28.90;;;13.30;;
295;SDS011;132;48.770;9.200;2024-03-02T06:15:18;26.73;;;13.37;;
295;SDS011;132;48.770;9.200;2024-03-02T06:31:05;29.50;;;14.77;;
295;SDS011;132;48.770;9.200;2024-03-02T06:33:54;30.58;;;15.40;;
295;SDS011;132;48.770;9.200;2024-03-02T06:47:01;30.03;;;14.17;;
295;SDS011;132;48.770;9.200;2024-03-02T07:00:11;21.07;;;11.67;;
295;SDS011;132;48.770;9.200;2024-03-02T07:15:53;25.25;;;13.15;;
295;SDS011;132;48.770;9.200;2024-03-02T07:34:46;24.27;;;13.43;;
295;SDS011;132;48.770;9.200;2024-03-02T08:03:15;23.27;;;14.32;;
295;SDS011;132;48.770;9.200;2024-03-02T08:16:26;22.55;;;14.80;;
295;SDS011;132;48.770;9.200;2024-03-02T08:29:36;68.67;;;65.37;;
295;SDS011;132;48.770;9.200;2024-03-02T08:42:41;694.90;;;661.73;;
295;SDS011;132;48.770;9.200;2024-03-02T08:45:32;848.97;;;808.50;;
295;SDS011;132;48.770;9.200;2024-03-02T08:48:16;886.43;;;844.17;;
295;SDS011;132;48.770;9.200;2024-03-02T09:02:01;39.53;;;37.63;;
295;SDS011;132;48.770;9.200;2024-03-02T09:15:23;1070.00;;;999.90;;
295;SDS011;132;48.770;9.200;2024-03-02T09:18:12;1096.77;;;999.90;;
295;SDS011;132;48.770;9.200;2024-03-02T09:21:20;1127.90;;;999.90;;
295;SDS011;132;48.770;9.200;2024-03-02T09:24:55;1148.43;;;999.90;;
295;SDS011;132;48.770;9.200;2024-03-02T09:38:00;1217.17;;;999.90;;
295;SDS011;132;48.770;9.200;2024-03-02T09:40:39;1221.20;;;999.90;;
295;SDS011;132;48.770;9.200;2024-03-02T09:43:19;1224.23;;;999.90;;
295;SDS011;132;48.770;9.200;2024-03-02T09:45:57;1227.10;;;999.90;;
295;SDS011;132;48.770;9.200;2024-03-02T09:48:35;1234.57;;;999.90;;
295;SDS011;132;48.770;9.200;2024-03-02T09:51:15;1249.70;;;999.90;;
295;SDS011;132;48.770;9.200;2024-03-02T09:53:57;1252.53;;;999.90;;
295;SDS011;132;48.770;9.200;2024-03-02T09:56:38;1250.63;;;999.90;;
295;SDS011;132;48.770;9.200;2024-03-02T09:59:16;1258.23;;;999.90;;
295;SDS011;132;48.770;9.200;2024-03-02T10:02:00;1258.77;;;999.90;;
295;SDS011;132;48.770;9.200;2024-03-02T10:04:44;1263.73;;;999.90;;
295;SDS011;132;48.770;9.200;2024-03-02T10:07:24;1273.13;;;999.90;;
295;SDS011;132;48.770;9.200;2024-03-02T10:10:14;1273.77;;;999.90;;
295;SDS011;132;48.770;9.200;2024-03-02T10:13:03;1280.50;;;999.90;;
295;SDS011;132;48.770;9.200;2024-03-02T10:15:42;1279.43;;;999.90;;
295;SDS011;132;48.770;9.200;2024-03-02T10:18:32;1286.53;;;999.90;;
295;SDS011;132;48.770;9.200;2024-03-02T10:21:13;1277.83;;;999.90;;
295;SDS011;132;48.770;9.200;2024-03-02T10:23:53;1298.40;;;999.90;;
295;SDS011;132;48.770;9.200;2024-03-02T10:26:45;1266.83;;;999.90;;
295;SDS011;132;48.770;9.200;2024-03-02T10:29:24;1269.33;;;999.90;;
295;SDS011;132;48.770;9.200;2024-03-02T10:32:05;1275.03;;;999.90;;
295;SDS011;132;48.770;9.200;2024-03-02T10:34:48;1286.63;;;999.90;;
295;SDS011;132;48.770;9.200;2024-03-02T10:37:28;1281.33;;;999.90;;
295;SDS011;132;48.770;9.200;2024-03-02T10:40:10;1281.67;;;999.90;;
295;SDS011;132;48.770;9.200;2024-03-02T10:42:50;1275.43;;;999.90;;
295;SDS011;132;48.770;9.200;2024-03-02T10:45:29;1292.73;;;999.90;;
295;SDS011;132;48.770;9.200;2024-03-02T10:48:07;1294.23;;;999.90;;
295;SDS011;132;48.770;9.200;2024-03-02T10:50:45;1280.50;;;999.90;;
295;SDS011;132;48.770;9.200;2024-03-02T10:53:25;1283.60;;;999.90;;
295;SDS011;132;48.770;9.200;2024-03-02T10:56:03;1282.60;;;999.90;;
295;SDS011;132;48.770;9.200;2024-03-02T10:58:46;1276.87;;;999.90;;
295;SDS011;132;48.770;9.200;2024-03-02T11:01:32;1283.90;;;999.90;;
295;SDS011;132;48.770;9.200;2024-03-02T11:04:11;1268.20;;;999.90;;
295;SDS011;132;48.770;9.200;2024-03-02T11:06:54;1299.90;;;999.90;;
295;SDS011;132;48.770;9.200;2024-03-02T11:09:51;1296.83;;;999.90;;
295;SDS011;132;48.770;9.200;2024-03-02T11:12:35;1301.77;;;999.90;;
295;SDS011;132;48.770;9.200;2024-03-02T11:15:17;1311.33;;;999.90;;
295;SDS011;132;48.770;9.200;2024-03-02T11:18:00;1308.33;;;999.90;;
295;SDS011;132;48.770;9.200;2024-03-02T11:20:41;1307.83;;;999.90;;
295;SDS011;132;48.770;9.200;2024-03-02T11:23:20;1292.50;;;999.90;;
295;SDS011;132;48.770;9.200;2024-03-02T11:26:19;1298.00;;;999.90;;
295;SDS011;132;48.770;9.200;2024-03-02T11:29:00;1305.70;;;999.90;;
295;SDS011;132;48.770;9.200;2024-03-02T11:31:57;1310.10;;;999.90;;
295;SDS011;132;48.770;9.200;2024-03-02T11:34:36;1293.80;;;999.90;;
295;SDS011;132;48.770;9.200;2024-03-02T11:37:17;1308.33;;;999.90;;
295;SDS011;132;48.770;9.200;2024-03-02T11:40:00;1328.27;;;999.90;;
295;SDS011;132;48.770;9.200;2024-03-02T11:42:39;1297.50;;;999.90;;
295;SDS011;132;48.770;9.200;2024-03-02T11:45:22;1331.50;;;999.90;;
295;SDS011;132;48.770;9.200;2024-03-02T11:48:01;1329.33;;;999.90;;
295;SDS011;132;48.770;9.200;2024-03-02T11:50:46;1329.50;;;999.90;;
295;SDS011;132;48.770;9.200;2024-03-02T11:53:27;1284.80;;;999.90;;
295;SDS011;132;48.770;9.200;2024-03-02T11:56:11;1265.77;;;999.90;;
295;SDS011;132;48.770;9.200;2024-03-02T11:58:53;1239.60;;;999.90;;
295;SDS011;132;48.770;9.200;2024-03-02T12:01:30;1202.93;;;999.90;;
295;SDS011;132;48.770;9.200;2024-03-02T12:04:12;1123.03;;;999.90;;
295;SDS011;132;48.770;9.200;2024-03-02T12:06:55;1170.70;;;999.90;;
295;SDS011;132;48.770;9.200;2024-03-02T12:09:38;1144.57;;;999.90;;
295;SDS011;132;48.770;9.200;2024-03-02T12:12:18;1260.60;;;999.90;;
295;SDS011;132;48.770;9.200;2024-03-02T12:15:01;1291.27;;;999.90;;
295;SDS011;132;48.770;9.200;2024-03-02T12:17:42;1318.67;;;999.90;;
295;SDS011;132;48.770;9.200;2024-03-02T12:20:22;1295.57;;;999.90;;
295;SDS011;132;48.770;9.200;2024-03-02T12:23:04;1249.93;;;999.90;;
295;SDS011;132;48.770;9.200;2024-03-02T12:25:42;1301.03;;;999.90;;
295;SDS011;132;48.770;9.200;2024-03-02T12:28:23;1303.53;;;999.90;;
295;SDS011;132;48.770;9.200;2024-03-02T12:31:03;1313.77;;;999.90;;
295;SDS011;132;48.770;9.200;2024-03-02T12:33:43;1310.70;;;999.90;;
295;SDS011;132;48.770;9.200;2024-03-02T12:36:24;1311.13;;;999.90;;
295;SDS011;132;48.770;9.200;2024-03-02T12:39:04;1318.13;;;999.90;;
295;SDS011;132;48.770;9.200;2024-03-02T12:41:45;1320.73;;;999.90;;
295;SDS011;132;48.770;9.200;2024-03-02T12:44:27;1317.30;;;999.90;;
295;SDS011;132;48.770;9.200;2024-03-02T12:47:06;1318.07;;;999.90;;
295;SDS011;132;48.770;9.200;2024-03-02T12:49:46;1317.57;;;999.90;;
295;SDS011;132;48.770;9.200;2024-03-02T12:52:24;1313.47;;;999.90;;
295;SDS011;132;48.770;9.200;2024-03-02T12:55:06;1306.80;;;999.90;;
295;SDS011;132;48.770;9.200;2024-03-02T12:57:44;1297.53;;;999.90;;
295;SDS011;132;48.770;9.200;2024-03-02T13:00:24;1303.23;;;999.90;;
295;SDS011;132;48.770;9.200;2024-03-02T13:03:04;1294.87;;;999.90;;
295;SDS011;132;48.770;9.200;2024-03-02T13:05:48;1293.03;;;999.90;;
295;SDS011;132;48.770;9.200;2024-03-02T13:08:30;1290.03;;;999.90;;
295;SDS011;132;48.770;9.200;2024-03-02T13:11:09;1280.60;;;999.90;;
295;SDS011;132;48.770;9.200;2024-03-02T13:13:48;1259.10;;;999.90;;
295;SDS011;132;48.770;9.200;2024-03-02T13:16:27;388.17;;;369.63;;
295;SDS011;132;48.770;9.200;2024-03-02T13:19:12;3.80;;;3.60;;
295;SDS011;132;48.770;9.200;2024-03-02T13:21:51;2.83;;;2.70;;
295;SDS011;132;48.770;9.200;2024-03-02T13:24:30;3.17;;;2.70;;
295;SDS011;132;48.770;9.200;2024-03-02T13:27:08;3.27;;;2.60;;
295;SDS011;132;48.770;9.200;2024-03-02T13:40:18;3.90;;;2.40;;
295;SDS011;132;48.770;9.200;2024-03-02T13:43:06;3.03;;;2.60;;
295;SDS011;132;48.770;9.200;2024-03-02T13:45:47;3.03;;;2.40;;
295;SDS011;132;48.770;9.200;2024-03-02T13:48:28;2.97;;;2.50;;
295;SDS011;132;48.770;9.200;2024-03-02T13:51:11;3.47;;;2.60;;
295;SDS011;132;48.770;9.200;2024-03-02T13:54:06;3.30;;;2.60;;
295;SDS011;132;48.770;9.200;2024-03-02T13:56:48;4.90;;;3.40;;
295;SDS011;132;48.770;9.200;2024-03-02T13:59:27;2.77;;;2.47;;
295;SDS011;132;48.770;9.200;2024-03-02T14:02:08;3.30;;;2.60;;
295;SDS011;132;48.770;9.200;2024-03-02T14:04:47;3.40;;;2.63;;
295;SDS011;132;48.770;9.200;2024-03-02T14:07:43;2.87;;;2.07;;
295;SDS011;132;48.770;9.200;2024-03-02T14:10:26;2.50;;;2.10;;
295;SDS011;132;48.770;9.200;2024-03-02T14:13:06;2.70;;;2.30;;
295;SDS011;132;48.770;9.200;2024-03-02T14:16:02;4.63;;;2.27;;
295;SDS011;132;48.770;9.200;2024-03-02T14:18:52;3.03;;;2.43;;
295;SDS011;132;48.770;9.200;2024-03-02T14:21:32;3.90;;;2.37;;
295;SDS011;132;48.770;9.200;2024-03-02T14:24:13;2.97;;;2.27;;
295;SDS011;132;48.770;9.200;2024-03-02T14:26:56;3.50;;;2.40;;
295;SDS011;132;48.770;9.200;2024-03-02T14:29:42;6.47;;;2.27;;
295;SDS011;132;48.770;9.200;2024-03-02T14:32:21;2.60;;;2.30;;
295;SDS011;132;48.770;9.200;2024-03-02T14:35:03;5.73;;;2.20;;
295;SDS011;132;48.770;9.200;2024-03-02T14:37:45;2.97;;;2.47;;
295;SDS011;132;48.770;9.200;2024-03-02T14:40:23;6.73;;;2.17;;
295;SDS011;132;48.770;9.200;2024-03-02T14:43:09;7.50;;;2.03;;
295;SDS011;132;48.770;9.200;2024-03-02T14:45:52;2.20;;;1.90;;
295;SDS011;132;48.770;9.200;2024-03-02T14:48:31;2.80;;;1.80;;
295;SDS011;132;48.770;9.200;2024-03-02T14:51:08;1.90;;;1.83;;
295;SDS011;132;48.770;9.200;2024-03-02T14:53:51;3.10;;;2.20;;
295;SDS011;132;48.770;9.200;2024-03-02T14:56:32;2.30;;;1.93;;
295;SDS011;132;48.770;9.200;2024-03-02T14:59:12;4.13;;;2.03;;
295;SDS011;132;48.770;9.200;2024-03-02T15:01:56;2.50;;;2.10;;
295;SDS011;132;48.770;9.200;2024-03-02T15:04:39;2.67;;;1.90;;
295;SDS011;132;48.770;9.200;2024-03-02T15:07:22;2.67;;;1.90;;
295;SDS011;132;48.770;9.200;2024-03-02T15:20:27;4.60;;;1.83;;
295;SDS011;132;48.770;9.200;2024-03-02T15:23:59;2.23;;;1.70;;
295;SDS011;132;48.770;9.200;2024-03-02T15:26:42;2.23;;;1.90;;
295;SDS011;132;48.770;9.200;2024-03-02T15:29:33;4.60;;;2.03;;
295;SDS011;132;48.770;9.200;2024-03-02T15:32:28;2.50;;;2.00;;
295;SDS011;132;48.770;9.200;2024-03-02T15:35:19;3.17;;;1.90;;
295;SDS011;132;48.770;9.200;2024-03-02T15:38:02;3.00;;;2.00;;
295;SDS011;132;48.770;9.200;2024-03-02T15:51:36;2.80;;;2.10;;
295;SDS011;132;48.770;9.200;2024-03-02T15:54:22;2.47;;;1.90;;
295;SDS011;132;48.770;9.200;2024-03-02T15:57:14;3.43;;;2.00;;
295;SDS011;132;48.770;9.200;2024-03-02T16:00:09;4.97;;;2.10;;
295;SDS011;132;48.770;9.200;2024-03-02T16:02:52;4.83;;;2.30;;
295;SDS011;132;48.770;9.200;2024-03-02T16:05:55;2.73;;;2.00;;
295;SDS011;132;48.770;9.200;2024-03-02T16:08:36;6.23;;;2.07;;
295;SDS011;132;48.770;9.200;2024-03-02T16:11:34;2.50;;;2.00;;
295;SDS011;132;48.770;9.200;2024-03-02T16:14:16;2.70;;;2.10;;
295;SDS011;132;48.770;9.200;2024-03-02T16:16:57;4.23;;;2.23;;
295;SDS011;132;48.770;9.200;2024-03-02T16:19:41;3.83;;;2.37;;
295;SDS011;132;48.770;9.200;2024-03-02T16:22:25;3.17;;;2.20;;
295;SDS011;132;48.770;9.200;2024-03-02T16:25:09;3.67;;;2.63;;
295;SDS011;132;48.770;9.200;2024-03-02T16:28:17;4.37;;;2.50;;
295;SDS011;132;48.770;9.200;2024-03-02T16:31:01;4.00;;;2.60;;
295;SDS011;132;48.770;9.200;2024-03-02T16:33:46;3.33;;;2.20;;
295;SDS011;132;48.770;9.200;2024-03-02T16:36:29;5.40;;;2.53;;
295;SDS011;132;48.770;9.200;2024-03-02T16:39:14;3.80;;;2.60;;
295;SDS011;132;48.770;9.200;2024-03-02T16:41:58;4.57;;;2.70;;
295;SDS011;132;48.770;9.200;2024-03-02T16:44:46;5.10;;;2.63;;
295;SDS011;132;48.770;9.200;2024-03-02T16:47:35;4.10;;;2.70;;
295;SDS011;132;48.770;9.200;2024-03-02T16:50:20;3.80;;;2.90;;
295;SDS011;132;48.770;9.200;2024-03-02T16:53:00;5.43;;;3.00;;
295;SDS011;132;48.770;9.200;2024-03-02T16:55:38;4.67;;;3.03;;
295;SDS011;132;48.770;9.200;2024-03-02T16:58:29;4.30;;;2.90;;
295;SDS011;132;48.770;9.200;2024-03-02T17:01:08;3.10;;;2.90;;
295;SDS011;132;48.770;9.200;2024-03-02T17:03:46;8.63;;;3.40;;
295;SDS011;132;48.770;9.200;2024-03-02T17:06:33;8.53;;;3.50;;
295;SDS011;132;48.770;9.200;2024-03-02T17:09:24;4.63;;;3.20;;
295;SDS011;132;48.770;9.200;2024-03-02T17:12:02;4.50;;;3.37;;
295;SDS011;132;48.770;9.200;2024-03-02T17:14:45;5.00;;;3.10;;
295;SDS011;132;48.770;9.200;2024-03-02T17:17:23;7.10;;;3.60;;
295;SDS011;132;48.770;9.200;2024-03-02T17:20:04;4.07;;;2.70;;
295;SDS011;132;48.770;9.200;2024-03-02T17:22:47;5.13;;;3.50;;
295;SDS011;132;48.770;9.200;2024-03-02T17:25:29;4.87;;;3.50;;
295;SDS011;132;48.770;9.200;2024-03-02T17:31:10;6.40;;;3.63;;
295;SDS011;132;48.770;9.200;2024-03-02T17:33:49;5.10;;;3.73;;
295;SDS011;132;48.770;9.200;2024-03-02T17:36:27;6.00;;;3.13;;
295;SDS011;132;48.770;9.200;2024-03-02T17:39:15;6.50;;;4.00;;
295;SDS011;132;48.770;9.200;2024-03-02T17:41:55;6.30;;;4.30;;
295;SDS011;132;48.770;9.200;2024-03-02T17:44:32;9.63;;;4.90;;
295;SDS011;132;48.770;9.200;2024-03-02T17:47:09;8.20;;;4.63;;
295;SDS011;132;48.770;9.200;2024-03-02T17:49:49;9.87;;;5.77;;
295;SDS011;132;48.770;9.200;2024-03-02T17:52:29;9.27;;;5.73;;
295;SDS011;132;48.770;9.200;2024-03-02T17:55:07;7.50;;;5.40;;
295;SDS011;132;48.770;9.200;2024-03-02T17:57:45;25.90;;;7.13;;
295;SDS011;132;48.770;9.200;2024-03-02T18:00:26;12.07;;;7.83;;
295;SDS011;132;48.770;9.200;2024-03-02T18:03:04;11.40;;;6.73;;
295;SDS011;132;48.770;9.200;2024-03-02T18:05:49;11.67;;;7.20;;
295;SDS011;132;48.770;9.200;2024-03-02T18:08:25;13.37;;;7.30;;
295;SDS011;132;48.770;9.200;2024-03-02T18:11:03;13.60;;;7.70;;
295;SDS011;132;48.770;9.200;2024-03-02T18:13:41;17.00;;;9.37;;
295;SDS011;132;48.770;9.200;2024-03-02T18:16:47;14.87;;;8.80;;
295;SDS011;132;48.770;9.200;2024-03-02T18:19:28;15.40;;;8.77;;
295;SDS011;132;48.770;9.200;2024-03-02T18:22:32;16.23;;;9.10;;
295;SDS011;132;48.770;9.200;2024-03-02T18:25:10;14.87;;;9.27;;
295;SDS011;132;48.770;9.200;2024-03-02T18:27:48;16.80;;;9.50;;
295;SDS011;132;48.770;9.200;2024-03-02T18:30:26;17.20;;;10.23;;
295;SDS011;132;48.770;9.200;2024-03-02T18:33:03;17.17;;;9.80;;
295;SDS011;132;48.770;9.200;2024-03-02T18:35:43;18.17;;;10.53;;
295;SDS011;132;48.770;9.200;2024-03-02T18:38:33;21.70;;;10.80;;
295;SDS011;132;48.770;9.200;2024-03-02T18:41:16;16.80;;;10.00;;
295;SDS011;132;48.770;9.200;2024-03-02T18:43:56;16.10;;;10.07;;
295;SDS011;132;48.770;9.200;2024-03-02T18:46:37;18.60;;;11.20;;
295;SDS011;132;48.770;9.200;2024-03-02T18:49:16;16.73;;;10.27;;
295;SDS011;132;48.770;9.200;2024-03-02T18:52:28;25.83;;;12.20;;
295;SDS011;132;48.770;9.200;2024-03-02T18:55:07;22.37;;;11.53;;
295;SDS011;132;48.770;9.200;2024-03-02T18:57:47;21.37;;;12.00;;
295;SDS011;132;48.770;9.200;2024-03-02T19:00:34;22.27;;;12.50;;
295;SDS011;132;48.770;9.200;2024-03-02T19:03:12;20.70;;;12.77;;
295;SDS011;132;48.770;9.200;2024-03-02T19:05:57;24.40;;;13.40;;
295;SDS011;132;48.770;9.200;2024-03-02T19:09:17;22.00;;;12.53;;
295;SDS011;132;48.770;9.200;2024-03-02T19:11:55;23.73;;;13.10;;
295;SDS011;132;48.770;9.200;2024-03-02T19:14:35;29.73;;;13.50;;
295;SDS011;132;48.770;9.200;2024-03-02T19:17:30;26.67;;;14.60;;
295;SDS011;132;48.770;9.200;2024-03-02T19:20:21;23.20;;;12.60;;
295;SDS011;132;48.770;9.200;2024-03-02T19:23:05;26.63;;;14.13;;
295;SDS011;132;48.770;9.200;2024-03-02T19:25:44;24.60;;;14.35;;
295;SDS011;132;48.770;9.200;2024-03-02T19:28:26;25.50;;;14.00;;
295;SDS011;132;48.770;9.200;2024-03-02T19:31:05;25.13;;;14.20;;
295;SDS011;132;48.770;9.200;2024-03-02T19:33:54;26.03;;;14.70;;
295;SDS011;132;48.770;9.200;2024-03-02T19:36:33;23.87;;;14.67;;
295;SDS011;132;48.770;9.200;2024-03-02T19:39:22;21.27;;;12.77;;
295;SDS011;132;48.770;9.200;2024-03-02T19:42:06;24.20;;;13.70;;
295;SDS011;132;48.770;9.200;2024-03-02T19:44:44;26.63;;;15.20;;
295;SDS011;132;48.770;9.200;2024-03-02T19:47:31;22.40;;;13.95;;
295;SDS011;132;48.770;9.200;2024-03-02T19:50:20;29.63;;;14.45;;
295;SDS011;132;48.770;9.200;2024-03-02T19:53:05;23.92;;;13.88;;
295;SDS011;132;48.770;9.200;2024-03-02T19:55:55;25.48;;;13.35;;
295;SDS011;132;48.770;9.200;2024-03-02T19:58:42;28.73;;;14.05;;
295;SDS011;132;48.770;9.200;2024-03-02T20:01:23;29.45;;;15.63;;
295;SDS011;132;48.770;9.200;2024-03-02T20:04:10;23.70;;;13.55;;
295;SDS011;132;48.770;9.200;2024-03-02T20:17:11;27.73;;;14.60;;
295;SDS011;132;48.770;9.200;2024-03-02T20:30:18;32.40;;;15.80;;
295;SDS011;132;48.770;9.200;2024-03-02T20:43:24;26.10;;;14.37;;
295;SDS011;132;48.770;9.200;2024-03-02T20:56:31;31.93;;;16.30;;
295;SDS011;132;48.770;9.200;2024-03-02T21:09:42;34.35;;;16.77;;
295;SDS011;132;48.770;9.200;2024-03-02T21:22:48;32.77;;;16.87;;
295;SDS011;132;48.770;9.200;2024-03-02T21:25:32;34.00;;;16.65;;
295;SDS011;132;48.770;9.200;2024-03-02T21:28:18;33.08;;;17.52;;
295;SDS011;132;48.770;9.200;2024-03-02T21:42:12;37.72;;;18.60;;
295;SDS011;132;48.770;9.200;2024-03-02T21:55:19;38.97;;;19.07;;
295;SDS011;132;48.770;9.200;2024-03-02T21:58:04;39.58;;;19.20;;
295;SDS011;132;48.770;9.200;2024-03-02T22:11:11;39.33;;;19.67;;